TAF EPSY 030230Z 0303/0312 25008KT CAVOK=